createdAt,value
2019-03-28T00:02:50.364Z,103123.37
2019-03-28T00:05:24.661Z,103123.86
2019-03-28T00:07:59.083Z,103122.17
2019-03-28T00:10:34.059Z,103116.11
2019-03-28T00:13:09.161Z,103112.42
2019-03-28T00:15:43.794Z,103113.73
2019-03-28T00:18:29.579Z,103121.81
2019-03-28T00:21:03.968Z,103124.13
2019-03-28T00:24:06.886Z,103132.24
2019-03-28T00:27:02.876Z,103129.88
2019-03-28T00:29:36.901Z,103129.22
2019-03-28T00:32:11.306Z,103133.90
2019-03-28T00:34:46.070Z,103125.03
2019-03-28T00:37:38.030Z,103129.77
2019-03-28T00:40:23.802Z,103129.64
2019-03-28T00:42:57.826Z,103129.61
2019-03-28T00:45:32.797Z,103125.56
2019-03-28T00:48:06.834Z,103118.68
2019-03-28T00:50:41.664Z,103121.17
2019-03-28T00:53:15.694Z,103120.83
2019-03-28T00:55:50.756Z,103122.63
2019-03-28T00:58:25.215Z,103122.00
2019-03-28T01:01:00.001Z,103117.77
2019-03-28T01:03:49.095Z,103122.36
2019-03-28T01:06:23.555Z,103122.52
2019-03-28T01:08:57.794Z,103129.50
2019-03-28T01:11:32.394Z,103130.20
2019-03-28T01:14:08.927Z,103129.86
2019-03-28T01:16:54.145Z,103135.91
2019-03-28T01:19:28.661Z,103129.38
2019-03-28T01:22:14.963Z,103140.97
2019-03-28T01:25:02.044Z,103141.16
2019-03-28T01:27:48.120Z,103131.55
2019-03-28T01:30:22.611Z,103134.84
2019-03-28T01:33:09.118Z,103137.92
2019-03-28T01:35:54.777Z,103136.55
2019-03-28T01:38:28.818Z,103144.11
2019-03-28T01:41:03.274Z,103134.33
2019-03-28T01:43:48.540Z,103130.02
2019-03-28T01:46:40.321Z,103128.48
2019-03-28T01:49:14.627Z,103126.00
2019-03-28T01:51:49.362Z,103125.17
2019-03-28T01:54:23.585Z,103133.69
2019-03-28T01:57:09.919Z,103128.17
2019-03-28T01:59:34.581Z,103121.80
2019-03-28T02:02:08.997Z,103120.05
2019-03-28T02:04:43.439Z,103123.05
2019-03-28T02:07:18.676Z,103126.94
2019-03-28T02:09:53.058Z,103127.45
2019-03-28T02:12:27.463Z,103131.33
2019-03-28T02:15:02.553Z,103123.62
2019-03-28T02:17:48.846Z,103127.83
2019-03-28T02:20:34.668Z,103126.42
2019-03-28T02:23:09.249Z,103128.59
2019-03-28T02:25:56.745Z,103129.94
2019-03-28T02:28:31.129Z,103122.67
2019-03-28T02:31:05.651Z,103127.87
2019-03-28T02:33:40.680Z,103133.33
2019-03-28T02:36:18.904Z,103129.02
2019-03-28T02:39:06.439Z,103135.02
2019-03-28T02:41:41.294Z,103136.33
2019-03-28T02:44:35.527Z,103141.23
2019-03-28T02:47:10.774Z,103135.98
2019-03-28T02:49:45.878Z,103123.55
2019-03-28T02:52:22.842Z,103132.66
2019-03-28T02:54:57.868Z,103140.38
2019-03-28T02:57:40.957Z,103130.23
2019-03-28T03:00:17.995Z,103133.27
2019-03-28T03:02:52.656Z,103129.22
2019-03-28T03:05:38.458Z,103125.23
2019-03-28T03:08:12.914Z,103127.91
2019-03-28T03:10:47.651Z,103126.54
2019-03-28T03:13:21.832Z,103124.56
2019-03-28T03:15:57.188Z,103127.23
2019-03-28T03:18:43.333Z,103126.92
2019-03-28T03:21:17.783Z,103127.53
2019-03-28T03:24:04.972Z,103127.91
2019-03-28T03:26:54.266Z,103134.51
2019-03-28T03:29:28.505Z,103143.15
2019-03-28T03:32:03.606Z,103142.16
2019-03-28T03:34:38.607Z,103148.28
2019-03-28T03:37:17.187Z,103149.81
2019-03-28T03:39:52.828Z,103152.52
2019-03-28T03:42:38.477Z,103149.52
2019-03-28T03:45:29.788Z,103154.08
2019-03-28T03:48:04.109Z,103152.59
2019-03-28T03:50:50.675Z,103153.77
2019-03-28T03:53:25.482Z,103158.07
2019-03-28T03:56:00.180Z,103164.80
2019-03-28T03:58:48.973Z,103166.77
2019-03-28T04:01:24.075Z,103168.08
2019-03-28T04:04:10.584Z,103162.75
2019-03-28T04:06:46.073Z,103167.05
2019-03-28T04:09:20.868Z,103171.08
2019-03-28T04:11:55.859Z,103179.49
2019-03-28T04:14:30.715Z,103179.72
2019-03-28T04:17:16.409Z,103181.53
2019-03-28T04:20:03.682Z,103179.49
2019-03-28T04:22:55.627Z,103192.41
2019-03-28T04:25:35.050Z,103192.87
2019-03-28T04:28:31.333Z,103190.23
2019-03-28T04:30:58.531Z,103198.23
2019-03-28T04:33:45.218Z,103199.23
2019-03-28T04:36:20.301Z,103200.88
2019-03-28T04:38:54.694Z,103199.03
2019-03-28T04:41:29.370Z,103192.66
2019-03-28T04:44:15.537Z,103202.29
2019-03-28T04:46:49.984Z,103196.58
2019-03-28T04:49:36.908Z,103199.01
2019-03-28T04:52:11.643Z,103200.95
2019-03-28T04:54:46.058Z,103197.89
2019-03-28T04:57:22.090Z,103197.85
2019-03-28T04:59:56.205Z,103200.81
2019-03-28T05:02:31.468Z,103197.66
2019-03-28T05:05:07.313Z,103208.27
2019-03-28T05:07:53.000Z,103197.62
2019-03-28T05:10:27.837Z,103212.78
2019-03-28T05:13:18.648Z,103207.51
2019-03-28T05:16:10.990Z,103215.66
2019-03-28T05:18:45.951Z,103211.80
2019-03-28T05:21:20.817Z,103208.02
2019-03-28T05:23:55.757Z,103207.98
2019-03-28T05:26:41.567Z,103201.20
2019-03-28T05:29:16.060Z,103202.83
2019-03-28T05:32:02.559Z,103201.05
2019-03-28T05:34:37.826Z,103197.00
2019-03-28T05:37:11.874Z,103199.95
2019-03-28T05:39:58.120Z,103203.69
2019-03-28T05:42:32.032Z,103207.04
2019-03-28T05:45:06.773Z,103205.22
2019-03-28T05:47:43.047Z,103207.51
2019-03-28T05:50:31.879Z,103209.08
2019-03-28T05:53:18.103Z,103214.72
2019-03-28T05:55:51.822Z,103224.00
2019-03-28T05:58:26.252Z,103220.03
2019-03-28T06:01:11.570Z,103220.42
2019-03-28T06:03:46.493Z,103220.77
2019-03-28T06:06:39.948Z,103215.11
2019-03-28T06:09:14.675Z,103219.28
2019-03-28T06:11:59.713Z,103220.77
2019-03-28T06:14:33.857Z,103236.99
2019-03-28T06:17:08.313Z,103231.13
2019-03-28T06:20:00.376Z,103239.95
2019-03-28T06:22:35.692Z,103246.56
2019-03-28T06:25:10.609Z,103245.27
2019-03-28T06:27:55.924Z,103252.08
2019-03-28T06:30:44.663Z,103252.82
2019-03-28T06:33:31.535Z,103249.67
2019-03-28T06:36:15.981Z,103243.66
2019-03-28T06:38:54.167Z,103248.81
2019-03-28T06:41:30.572Z,103252.79
2019-03-28T06:44:05.435Z,103251.91
2019-03-28T06:46:47.738Z,103251.09
2019-03-28T06:49:24.311Z,103240.58
2019-03-28T06:51:58.947Z,103247.00
2019-03-28T06:54:33.755Z,103258.09
2019-03-28T06:57:18.926Z,103255.19
2019-03-28T06:59:52.976Z,103255.06
2019-03-28T07:02:27.410Z,103264.44
2019-03-28T07:05:02.442Z,103265.86
2019-03-28T07:07:38.159Z,103256.36
2019-03-28T07:10:14.313Z,103259.95
2019-03-28T07:13:00.122Z,103264.28
2019-03-28T07:15:36.757Z,103261.37
2019-03-28T07:18:12.426Z,103262.27
2019-03-28T07:20:46.743Z,103268.09
2019-03-28T07:23:34.354Z,103261.60
2019-03-28T07:26:09.304Z,103276.72
2019-03-28T07:28:54.848Z,103279.52
2019-03-28T07:31:29.715Z,103280.97
2019-03-28T07:34:16.666Z,103274.09
2019-03-28T07:36:57.131Z,103275.91
2019-03-28T07:39:32.344Z,103278.73
2019-03-28T07:42:08.278Z,103281.18
2019-03-28T07:44:54.624Z,103295.06
2019-03-28T07:47:29.224Z,103307.82
2019-03-28T07:50:16.444Z,103305.11
2019-03-28T07:53:02.664Z,103301.37
2019-03-28T07:55:46.113Z,103302.03
2019-03-28T07:58:24.771Z,103304.96
2019-03-28T08:01:00.587Z,103301.80
2019-03-28T08:03:46.207Z,103300.58
2019-03-28T08:06:21.304Z,103310.71
2019-03-28T08:08:58.214Z,103322.02
2019-03-28T08:11:32.571Z,103313.76
2019-03-28T08:14:22.745Z,103308.41
2019-03-28T08:17:06.416Z,103306.61
2019-03-28T08:19:41.703Z,103313.44
2019-03-28T08:22:17.357Z,103313.83
2019-03-28T08:24:52.144Z,103314.17
2019-03-28T08:27:26.512Z,103311.84
2019-03-28T08:30:18.610Z,103318.09
2019-03-28T08:32:49.430Z,103321.45
2019-03-28T08:35:36.214Z,103320.38
2019-03-28T08:38:10.606Z,103326.55
2019-03-28T08:40:44.936Z,103325.51
2019-03-28T08:43:19.752Z,103329.18
2019-03-28T08:45:54.071Z,103337.91
2019-03-28T08:48:27.942Z,103340.31
2019-03-28T08:51:14.040Z,103332.50
2019-03-28T08:53:48.621Z,103330.55
2019-03-28T08:56:41.467Z,103326.92
2019-03-28T08:59:18.782Z,103330.33
2019-03-28T09:02:11.503Z,103335.36
2019-03-28T09:04:45.874Z,103332.47
2019-03-28T09:07:32.391Z,103331.05
2019-03-28T09:10:06.685Z,103341.31
2019-03-28T09:12:53.224Z,103344.44
2019-03-28T09:15:42.714Z,103345.57
2019-03-28T09:18:04.710Z,103343.55
2019-03-28T09:20:57.507Z,103346.77
2019-03-28T09:23:33.706Z,103344.19
2019-03-28T09:26:07.999Z,103343.70
2019-03-28T09:28:42.800Z,103342.91
2019-03-28T09:31:29.000Z,103342.18
2019-03-28T09:34:14.797Z,103343.06
2019-03-28T09:36:59.651Z,103346.45
2019-03-28T09:39:46.132Z,103343.75
2019-03-28T09:42:20.368Z,103340.20
2019-03-28T09:44:56.351Z,103336.51
2019-03-28T09:47:30.573Z,103337.16
2019-03-28T09:50:16.370Z,103335.52
2019-03-28T09:53:02.525Z,103338.73
2019-03-28T09:55:36.889Z,103345.80
2019-03-28T09:58:11.615Z,103340.94
2019-03-28T10:00:45.721Z,103341.63
2019-03-28T10:03:20.381Z,103335.27
2019-03-28T10:05:54.939Z,103330.71
2019-03-28T10:08:40.431Z,103334.25
2019-03-28T10:11:25.741Z,103330.05
2019-03-28T10:14:10.220Z,103329.90
2019-03-28T10:16:56.197Z,103327.00
2019-03-28T10:19:30.852Z,103328.71
2019-03-28T10:22:15.188Z,103328.52
2019-03-28T10:25:01.745Z,103336.44
2019-03-28T10:27:36.115Z,103333.56
2019-03-28T10:30:12.097Z,103336.59
2019-03-28T10:32:46.853Z,103337.27
2019-03-28T10:35:30.304Z,103335.74
2019-03-28T10:38:04.244Z,103335.72
2019-03-28T10:40:56.604Z,103335.36
2019-03-28T10:43:30.992Z,103337.56
2019-03-28T10:46:15.969Z,103339.87
2019-03-28T10:49:07.905Z,103332.27
2019-03-28T10:51:41.976Z,103339.52
2019-03-28T10:54:20.552Z,103335.34
2019-03-28T10:56:57.238Z,103341.11
2019-03-28T10:59:29.357Z,103346.31
2019-03-28T11:02:14.711Z,103341.73
2019-03-28T11:04:49.085Z,103348.33
2019-03-28T11:07:22.781Z,103354.05
2019-03-28T11:09:56.839Z,103346.98
2019-03-28T11:12:31.853Z,103352.39
2019-03-28T11:15:06.487Z,103356.59
2019-03-28T11:17:40.915Z,103352.89
2019-03-28T11:20:15.755Z,103353.22
2019-03-28T11:22:50.129Z,103351.38
2019-03-28T11:25:41.159Z,103361.80
2019-03-28T11:28:25.576Z,103357.77
2019-03-28T11:31:11.325Z,103366.52
2019-03-28T11:33:44.855Z,103368.38
2019-03-28T11:36:29.536Z,103358.45
2019-03-28T11:39:04.419Z,103363.16
2019-03-28T11:41:47.313Z,103356.86
2019-03-28T11:44:31.698Z,103357.20
2019-03-28T11:47:17.883Z,103355.30
2019-03-28T11:49:52.157Z,103357.82
2019-03-28T11:52:27.073Z,103358.97
2019-03-28T11:55:02.207Z,103362.85
2019-03-28T11:57:36.720Z,103362.37
2019-03-28T12:00:21.382Z,103354.23
2019-03-28T12:03:06.043Z,103356.28
2019-03-28T12:05:53.259Z,103348.48
2019-03-28T12:08:26.836Z,103353.56
2019-03-28T12:11:01.471Z,103356.50
2019-03-28T12:13:44.842Z,103348.84
2019-03-28T12:16:12.422Z,103349.39
2019-03-28T12:19:03.709Z,103349.28
2019-03-28T12:21:38.173Z,103349.97
2019-03-28T12:24:23.471Z,103342.20
2019-03-28T12:26:57.219Z,103343.91
2019-03-28T12:29:35.561Z,103339.88
2019-03-28T12:32:14.025Z,103341.22
2019-03-28T12:34:44.609Z,103347.00
2019-03-28T12:37:19.341Z,103345.48
2019-03-28T12:40:05.095Z,103349.83
2019-03-28T12:42:39.586Z,103348.17
2019-03-28T12:45:22.726Z,103344.67
2019-03-28T12:48:07.878Z,103343.28
2019-03-28T12:50:59.019Z,103345.31
2019-03-28T12:53:31.005Z,103347.17
2019-03-28T12:56:05.345Z,103341.29
2019-03-28T12:58:51.411Z,103335.50
2019-03-28T13:01:25.769Z,103337.71
2019-03-28T13:04:00.146Z,103340.59
2019-03-28T13:06:40.800Z,103339.88
2019-03-28T13:09:15.152Z,103332.79
2019-03-28T13:11:54.619Z,103343.55
2019-03-28T13:14:31.315Z,103338.03
2019-03-28T13:17:22.211Z,103328.95
2019-03-28T13:20:05.325Z,103326.09
2019-03-28T13:22:52.149Z,103333.30
2019-03-28T13:25:28.862Z,103332.47
2019-03-28T13:28:05.364Z,103329.11
2019-03-28T13:30:42.517Z,103327.42
2019-03-28T13:33:22.667Z,103328.09
2019-03-28T13:36:00.413Z,103326.38
2019-03-28T13:38:37.657Z,103324.67
2019-03-28T13:41:12.155Z,103326.31
2019-03-28T13:43:58.569Z,103326.00
2019-03-28T13:46:32.798Z,103331.06
2019-03-28T13:49:16.488Z,103324.66
2019-03-28T13:51:50.546Z,103321.60
2019-03-28T13:54:24.563Z,103322.21
2019-03-28T13:57:12.097Z,103313.53
2019-03-28T13:59:48.345Z,103325.39
2019-03-28T14:02:23.090Z,103325.36
2019-03-28T14:05:08.799Z,103328.17
2019-03-28T14:07:52.112Z,103325.66
2019-03-28T14:10:26.371Z,103325.17
2019-03-28T14:13:00.766Z,103324.72
2019-03-28T14:15:53.139Z,103326.64
2019-03-28T14:18:27.476Z,103323.37
2019-03-28T14:21:10.606Z,103327.55
2019-03-28T14:23:54.655Z,103327.13
2019-03-28T14:26:29.014Z,103326.98
2019-03-28T14:29:03.414Z,103322.28
2019-03-28T14:31:37.405Z,103320.02
2019-03-28T14:34:22.932Z,103317.32
2019-03-28T14:37:17.012Z,103313.85
2019-03-28T14:40:01.595Z,103316.55
2019-03-28T14:42:45.455Z,103319.34
2019-03-28T14:45:19.918Z,103313.84
2019-03-28T14:47:54.762Z,103318.31
2019-03-28T14:50:36.940Z,103318.77
2019-03-28T14:53:23.045Z,103317.46
2019-03-28T14:56:09.455Z,103313.00
2019-03-28T14:58:46.083Z,103309.18
2019-03-28T15:01:23.485Z,103306.62
2019-03-28T15:03:57.987Z,103306.59
2019-03-28T15:06:32.042Z,103308.61
2019-03-28T15:09:09.781Z,103304.91
2019-03-28T15:11:55.585Z,103302.80
2019-03-28T15:14:39.363Z,103298.75
2019-03-28T15:17:13.908Z,103306.26
2019-03-28T15:20:05.702Z,103293.81
2019-03-28T15:22:45.001Z,103297.91
2019-03-28T15:25:19.648Z,103301.20
2019-03-28T15:27:54.075Z,103292.69
2019-03-28T15:30:39.831Z,103299.40
2019-03-28T15:33:14.560Z,103295.75
2019-03-28T15:36:03.197Z,103296.40
2019-03-28T15:38:49.216Z,103301.86
2019-03-28T15:41:25.098Z,103295.66
2019-03-28T15:43:59.508Z,103298.05
2019-03-28T15:46:45.154Z,103295.17
2019-03-28T15:49:36.248Z,103297.53
2019-03-28T15:52:21.808Z,103294.25
2019-03-28T15:54:56.529Z,103285.30
2019-03-28T15:57:42.377Z,103283.89
2019-03-28T16:00:18.088Z,103289.05
2019-03-28T16:03:09.420Z,103282.58
2019-03-28T16:05:58.629Z,103289.17
2019-03-28T16:08:31.716Z,103292.57
2019-03-28T16:11:16.955Z,103284.85
2019-03-28T16:13:52.705Z,103284.63
2019-03-28T16:16:28.363Z,103285.38
2019-03-28T16:19:03.175Z,103292.91
2019-03-28T16:21:51.051Z,103289.39
2019-03-28T16:24:36.720Z,103284.45
2019-03-28T16:27:11.852Z,103286.83
2019-03-28T16:29:46.996Z,103291.88
2019-03-28T16:32:21.007Z,103288.16
2019-03-28T16:34:55.061Z,103285.30
2019-03-28T16:37:43.863Z,103285.09
2019-03-28T16:40:18.609Z,103280.89
2019-03-28T16:43:01.610Z,103276.67
2019-03-28T16:45:53.265Z,103277.73
2019-03-28T16:48:27.570Z,103276.78
2019-03-28T16:51:02.798Z,103277.40
2019-03-28T16:53:35.797Z,103275.38
2019-03-28T16:56:10.363Z,103271.83
2019-03-28T16:58:45.809Z,103280.43
2019-03-28T17:01:23.414Z,103281.11
2019-03-28T17:03:58.186Z,103282.77
2019-03-28T17:06:33.282Z,103283.77
2019-03-28T17:09:20.095Z,103291.52
2019-03-28T17:12:06.250Z,103294.98
2019-03-28T17:14:40.225Z,103293.55
2019-03-28T17:17:13.989Z,103302.64
2019-03-28T17:19:49.088Z,103308.06
2019-03-28T17:22:23.767Z,103312.26
2019-03-28T17:25:16.988Z,103307.64
2019-03-28T17:27:52.092Z,103309.69
2019-03-28T17:30:27.014Z,103313.30
2019-03-28T17:33:12.340Z,103311.95
2019-03-28T17:35:57.431Z,103312.51
2019-03-28T17:38:43.837Z,103316.88
2019-03-28T17:41:35.161Z,103316.41
2019-03-28T17:44:09.551Z,103310.05
2019-03-28T17:46:44.718Z,103311.23
2019-03-28T17:49:33.446Z,103312.55
2019-03-28T17:52:07.248Z,103310.21
2019-03-28T17:54:41.205Z,103316.27
2019-03-28T17:57:13.968Z,103313.91
2019-03-28T17:59:48.440Z,103312.61
2019-03-28T18:02:21.453Z,103311.27
2019-03-28T18:05:08.551Z,103318.17
2019-03-28T18:08:13.937Z,103313.12
2019-03-28T18:10:56.155Z,103314.98
2019-03-28T18:13:47.982Z,103315.31
2019-03-28T18:16:22.735Z,103317.13
2019-03-28T18:18:57.438Z,103320.83
2019-03-28T18:22:02.476Z,103316.95
2019-03-28T18:24:35.789Z,103320.28
2019-03-28T18:27:10.593Z,103322.36
2019-03-28T18:29:57.182Z,103321.69
2019-03-28T18:33:03.960Z,103328.45
2019-03-28T18:35:38.521Z,103329.81
2019-03-28T18:38:14.160Z,103328.31
2019-03-28T18:40:57.369Z,103326.28
2019-03-28T18:43:34.092Z,103337.25
2019-03-28T18:46:08.615Z,103330.19
2019-03-28T18:48:45.233Z,103326.30
2019-03-28T18:51:18.655Z,103329.17
2019-03-28T18:53:56.382Z,103331.52
2019-03-28T18:56:51.946Z,103330.52
2019-03-28T18:59:50.061Z,103321.41
2019-03-28T19:02:26.532Z,103323.80
2019-03-28T19:05:00.989Z,103327.50
2019-03-28T19:07:35.579Z,103333.56
2019-03-28T19:10:11.240Z,103330.52
2019-03-28T19:12:54.715Z,103330.13
2019-03-28T19:15:37.946Z,103332.81
2019-03-28T19:18:12.239Z,103335.52
2019-03-28T19:20:47.214Z,103336.39
2019-03-28T19:23:21.663Z,103330.52
2019-03-28T19:26:05.988Z,103330.19
2019-03-28T19:28:49.601Z,103329.31
2019-03-28T19:31:23.742Z,103331.36
2019-03-28T19:34:02.308Z,103331.87
2019-03-28T19:36:47.122Z,103324.47
2019-03-28T19:39:34.249Z,103328.52
2019-03-28T19:42:17.984Z,103327.18
2019-03-28T19:45:02.812Z,103323.47
2019-03-28T19:47:39.633Z,103331.87
2019-03-28T19:50:17.261Z,103332.89
2019-03-28T19:52:53.455Z,103327.53
2019-03-28T19:55:40.837Z,103330.22
2019-03-28T19:58:15.465Z,103329.89
2019-03-28T20:01:10.433Z,103328.03
2019-03-28T20:04:01.042Z,103331.89
2019-03-28T20:06:35.446Z,103330.20
2019-03-28T20:09:16.424Z,103325.65
2019-03-28T20:12:00.046Z,103328.17
2019-03-28T20:14:32.659Z,103328.17
2019-03-28T20:17:07.098Z,103322.48
2019-03-28T20:19:41.879Z,103326.01
2019-03-28T20:22:18.299Z,103334.59
2019-03-28T20:25:03.091Z,103330.53
2019-03-28T20:27:38.645Z,103335.25
2019-03-28T20:30:12.458Z,103330.23
2019-03-28T20:32:48.279Z,103327.99
2019-03-28T20:35:26.413Z,103334.26
2019-03-28T20:38:15.224Z,103330.73
2019-03-28T20:40:50.848Z,103331.41
2019-03-28T20:43:27.096Z,103338.27
2019-03-28T20:46:20.710Z,103343.00
2019-03-28T20:48:55.798Z,103344.86
2019-03-28T20:51:31.448Z,103348.05
2019-03-28T20:54:07.801Z,103349.22
2019-03-28T20:56:41.908Z,103352.08
2019-03-28T20:59:16.705Z,103361.82
2019-03-28T21:01:52.412Z,103360.62
2019-03-28T21:04:31.546Z,103358.77
2019-03-28T21:07:16.406Z,103362.14
2019-03-28T21:09:57.369Z,103365.48
2019-03-28T21:12:48.781Z,103362.28
2019-03-28T21:15:25.402Z,103365.97
2019-03-28T21:18:19.218Z,103369.69
2019-03-28T21:20:55.030Z,103369.83
2019-03-28T21:23:40.934Z,103369.17
2019-03-28T21:26:15.306Z,103373.73
2019-03-28T21:28:50.902Z,103378.08
2019-03-28T21:31:48.850Z,103376.94
2019-03-28T21:34:31.762Z,103381.80
2019-03-28T21:37:11.392Z,103380.93
2019-03-28T21:39:46.437Z,103378.23
2019-03-28T21:42:21.157Z,103380.41
2019-03-28T21:45:12.332Z,103382.63
2019-03-28T21:47:47.214Z,103379.59
2019-03-28T21:50:32.426Z,103382.31
2019-03-28T21:53:24.576Z,103379.45
2019-03-28T21:56:02.197Z,103382.44
2019-03-28T21:58:36.341Z,103378.59
2019-03-28T22:01:16.645Z,103381.41
2019-03-28T22:03:51.794Z,103382.75
2019-03-28T22:06:25.926Z,103381.59
2019-03-28T22:09:05.253Z,103379.93
2019-03-28T22:11:41.457Z,103364.28
2019-03-28T22:14:27.500Z,103365.45
2019-03-28T22:16:59.611Z,103370.83
2019-03-28T22:19:49.906Z,103369.34
2019-03-28T22:22:24.138Z,103365.78
2019-03-28T22:25:16.978Z,103366.48
2019-03-28T22:27:55.352Z,103363.75
2019-03-28T22:30:29.449Z,103363.41
2019-03-28T22:33:03.906Z,103371.16
2019-03-28T22:35:49.872Z,103360.23
2019-03-28T22:38:41.880Z,103357.72
2019-03-28T22:41:15.121Z,103359.54
2019-03-28T22:44:07.749Z,103356.85
2019-03-28T22:46:42.414Z,103353.64
2019-03-28T22:49:32.977Z,103250.69
2019-03-28T22:52:06.967Z,103347.27
2019-03-28T22:54:41.177Z,103307.57
2019-03-28T22:57:15.783Z,103339.20
2019-03-28T22:59:54.944Z,103341.20
2019-03-28T23:02:28.328Z,103344.92
2019-03-28T23:05:21.240Z,103341.55
2019-03-28T23:07:55.096Z,103337.20
2019-03-28T23:10:30.260Z,103340.55
2019-03-28T23:13:03.995Z,103340.20
2019-03-28T23:15:37.994Z,103337.84
2019-03-28T23:18:24.475Z,103337.20
2019-03-28T23:21:11.104Z,103332.48
2019-03-28T23:23:46.062Z,103331.97
2019-03-28T23:26:20.626Z,103331.83
2019-03-28T23:29:12.566Z,103335.04
2019-03-28T23:31:46.765Z,103335.34
2019-03-28T23:34:20.832Z,103325.75
2019-03-28T23:36:54.924Z,103324.75
2019-03-28T23:39:50.311Z,103322.73
2019-03-28T23:42:24.145Z,103318.86
2019-03-28T23:44:58.771Z,103314.13
2019-03-28T23:47:44.521Z,103312.78
2019-03-28T23:50:18.557Z,103312.95
2019-03-28T23:52:55.299Z,103309.58
2019-03-28T23:55:29.391Z,103229.55
2019-03-28T23:58:23.701Z,103303.04
